createdAt,value
2019-03-24T00:03:05.471Z,9.24
2019-03-24T00:08:10.405Z,9.01
2019-03-24T00:13:15.047Z,8.75
2019-03-24T00:18:19.683Z,9.41
2019-03-24T00:23:24.424Z,9.04
2019-03-24T00:28:29.170Z,9.31
2019-03-24T00:33:33.909Z,8.55
2019-03-24T00:38:38.659Z,8.79
2019-03-24T00:43:43.405Z,9.13
2019-03-24T00:48:48.140Z,9.19
2019-03-24T00:53:52.889Z,8.08
2019-03-24T00:58:57.538Z,8.70
2019-03-24T01:04:02.266Z,8.61
2019-03-24T01:09:08.063Z,8.43
2019-03-24T01:14:12.775Z,9.13
2019-03-24T01:19:18.440Z,9.12
2019-03-24T01:24:23.115Z,9.28
2019-03-24T01:29:27.718Z,9.45
2019-03-24T01:34:32.485Z,8.84
2019-03-24T01:39:37.055Z,8.34
2019-03-24T01:44:41.750Z,8.83
2019-03-24T01:49:46.378Z,8.97
2019-03-24T01:54:51.028Z,9.14
2019-03-24T01:59:55.586Z,8.91
2019-03-24T02:05:00.330Z,8.64
2019-03-24T02:10:07.413Z,8.88
2019-03-24T02:15:12.070Z,8.15
2019-03-24T02:20:16.647Z,8.08
2019-03-24T02:25:21.330Z,8.33
2019-03-24T02:30:25.965Z,8.27
2019-03-24T02:35:30.545Z,7.86
2019-03-24T02:40:35.253Z,8.14
2019-03-24T02:45:39.894Z,8.10
2019-03-24T02:50:44.631Z,8.39
2019-03-24T02:55:49.200Z,7.12
2019-03-24T03:00:53.911Z,7.61
2019-03-24T03:05:58.552Z,7.80
2019-03-24T03:11:03.294Z,7.58
2019-03-24T03:16:08.039Z,7.78
2019-03-24T03:21:12.566Z,8.09
2019-03-24T03:26:17.315Z,7.83
2019-03-24T03:31:22.069Z,7.49
2019-03-24T03:36:26.805Z,7.90
2019-03-24T03:41:31.555Z,7.37
2019-03-24T03:46:36.187Z,7.10
2019-03-24T03:51:40.949Z,7.60
2019-03-24T03:56:45.775Z,7.65
2019-03-24T04:01:50.517Z,7.57
2019-03-24T04:06:55.261Z,7.61
2019-03-24T04:12:00.209Z,7.73
2019-03-24T04:17:07.512Z,7.44
2019-03-24T04:22:11.129Z,7.22
2019-03-24T04:27:15.875Z,7.50
2019-03-24T04:32:20.504Z,7.74
2019-03-24T04:37:25.258Z,7.39
2019-03-24T04:42:29.996Z,7.55
2019-03-24T04:47:34.736Z,6.67
2019-03-24T04:52:39.484Z,7.23
2019-03-24T04:57:44.127Z,7.22
2019-03-24T05:02:48.765Z,7.70
2019-03-24T05:07:53.607Z,8.62
2019-03-24T05:12:59.577Z,9.58
2019-03-24T05:18:04.424Z,10.85
2019-03-24T05:23:09.070Z,10.91
2019-03-24T05:28:13.659Z,11.52
2019-03-24T05:33:18.374Z,11.49
2019-03-24T05:38:22.950Z,10.87
2019-03-24T05:43:27.874Z,10.73
2019-03-24T05:48:32.683Z,10.63
2019-03-24T05:53:37.419Z,10.79
2019-03-24T05:58:42.161Z,11.08
2019-03-24T06:03:47.219Z,11.66
2019-03-24T06:08:52.157Z,11.55
2019-03-24T06:13:59.155Z,12.30
2019-03-24T06:19:03.902Z,12.43
2019-03-24T06:24:08.644Z,12.54
2019-03-24T06:29:13.388Z,12.06
2019-03-24T06:34:18.262Z,11.95
2019-03-24T06:39:23.178Z,12.52
2019-03-24T06:44:28.439Z,12.60
2019-03-24T06:49:33.179Z,13.10
2019-03-24T06:54:38.944Z,12.43
2019-03-24T06:59:45.222Z,12.57
2019-03-24T07:04:49.869Z,12.85
2019-03-24T07:09:54.560Z,13.48
2019-03-24T07:14:59.251Z,13.59
2019-03-24T07:20:05.696Z,13.35
2019-03-24T07:25:10.376Z,13.59
2019-03-24T07:30:15.628Z,14.57
2019-03-24T07:35:21.131Z,13.90
2019-03-24T07:40:26.605Z,13.94
2019-03-24T07:45:31.621Z,14.17
2019-03-24T07:50:36.452Z,14.69
2019-03-24T07:55:41.307Z,14.77
2019-03-24T08:00:46.137Z,14.88
2019-03-24T08:05:50.753Z,14.46
2019-03-24T08:10:55.520Z,15.49
2019-03-24T08:16:00.320Z,16.25
2019-03-24T08:21:05.009Z,15.75
2019-03-24T08:26:09.997Z,15.27
2019-03-24T08:31:14.820Z,16.21
2019-03-24T08:36:19.544Z,16.75
2019-03-24T08:41:24.289Z,16.76
2019-03-24T08:46:29.141Z,17.51
2019-03-24T08:51:34.628Z,16.97
2019-03-24T08:56:39.366Z,18.07
2019-03-24T09:01:44.094Z,17.48
2019-03-24T09:06:48.909Z,18.38
2019-03-24T09:11:53.795Z,18.52
2019-03-24T09:17:00.259Z,18.48
2019-03-24T09:22:04.905Z,19.37
2019-03-24T09:27:09.647Z,19.37
2019-03-24T09:32:14.384Z,19.39
2019-03-24T09:37:21.123Z,18.96
2019-03-24T09:42:27.379Z,19.59
2019-03-24T09:47:32.206Z,19.68
2019-03-24T09:52:37.048Z,18.23
2019-03-24T09:57:43.405Z,19.70
2019-03-24T10:02:51.828Z,18.82
2019-03-24T10:07:58.123Z,19.17
2019-03-24T10:13:03.117Z,20.19
2019-03-24T10:18:08.061Z,20.99
2019-03-24T10:23:12.888Z,19.50
2019-03-24T10:28:19.167Z,20.23
2019-03-24T10:33:24.013Z,19.62
2019-03-24T10:38:30.085Z,20.23
2019-03-24T10:43:34.828Z,20.76
2019-03-24T10:48:39.475Z,20.81
2019-03-24T10:53:45.853Z,20.02
2019-03-24T10:58:50.595Z,19.78
2019-03-24T11:03:55.463Z,20.76
2019-03-24T11:09:00.184Z,19.60
2019-03-24T11:14:05.543Z,20.73
2019-03-24T11:19:11.356Z,20.41
2019-03-24T11:24:16.909Z,20.78
2019-03-24T11:29:23.219Z,20.97
2019-03-24T11:34:30.389Z,20.96
2019-03-24T11:39:35.340Z,21.43
2019-03-24T11:44:40.267Z,21.33
2019-03-24T11:49:46.277Z,20.20
2019-03-24T11:54:51.172Z,20.93
2019-03-24T11:59:56.909Z,20.17
2019-03-24T12:05:01.688Z,21.22
2019-03-24T12:10:07.784Z,20.63
2019-03-24T12:15:12.707Z,20.24
2019-03-24T12:20:17.353Z,20.73
2019-03-24T12:25:23.727Z,20.21
2019-03-24T12:30:29.996Z,19.88
2019-03-24T12:35:35.042Z,21.12
2019-03-24T12:40:39.747Z,21.58
2019-03-24T12:45:45.057Z,20.49
2019-03-24T12:50:49.911Z,20.97
2019-03-24T12:55:55.906Z,20.99
2019-03-24T13:01:01.041Z,20.64
2019-03-24T13:06:05.886Z,20.54
2019-03-24T13:11:10.832Z,20.91
2019-03-24T13:16:15.783Z,21.60
2019-03-24T13:21:20.517Z,21.58
2019-03-24T13:26:26.334Z,21.49
2019-03-24T13:31:31.338Z,21.40
2019-03-24T13:36:36.186Z,21.30
2019-03-24T13:41:41.904Z,21.34
2019-03-24T13:46:46.697Z,22.01
2019-03-24T13:51:53.608Z,21.75
2019-03-24T13:56:59.059Z,21.34
2019-03-24T14:02:04.291Z,20.96
2019-03-24T14:07:09.766Z,20.81
2019-03-24T14:12:14.988Z,21.48
2019-03-24T14:17:20.000Z,21.42
2019-03-24T14:22:26.736Z,22.07
2019-03-24T14:27:32.061Z,22.04
2019-03-24T14:32:37.993Z,22.09
2019-03-24T14:37:42.732Z,21.61
2019-03-24T14:42:47.484Z,20.67
2019-03-24T14:47:52.436Z,20.96
2019-03-24T14:52:58.640Z,21.12
2019-03-24T14:58:04.016Z,21.06
2019-03-24T15:03:08.922Z,21.70
2019-03-24T15:08:15.193Z,21.40
2019-03-24T15:13:19.853Z,21.48
2019-03-24T15:18:24.685Z,21.90
2019-03-24T15:23:29.423Z,21.56
2019-03-24T15:28:34.171Z,21.20
2019-03-24T15:33:39.017Z,20.83
2019-03-24T15:38:43.761Z,20.12
2019-03-24T15:43:48.977Z,20.67
2019-03-24T15:48:54.017Z,20.03
2019-03-24T15:53:58.615Z,20.39
2019-03-24T15:59:03.553Z,20.02
2019-03-24T16:04:08.294Z,20.15
2019-03-24T16:09:13.155Z,19.75
2019-03-24T16:14:17.837Z,19.90
2019-03-24T16:19:23.359Z,20.00
2019-03-24T16:24:28.192Z,20.16
2019-03-24T16:29:33.047Z,20.17
2019-03-24T16:34:37.779Z,20.02
2019-03-24T16:39:42.530Z,19.80
2019-03-24T16:44:47.281Z,19.17
2019-03-24T16:49:52.155Z,19.08
2019-03-24T16:54:56.722Z,18.30
2019-03-24T17:00:02.324Z,17.74
2019-03-24T17:05:08.291Z,17.21
2019-03-24T17:10:13.132Z,16.62
2019-03-24T17:15:19.210Z,17.09
2019-03-24T17:20:24.061Z,17.26
2019-03-24T17:25:30.439Z,17.00
2019-03-24T17:30:35.827Z,16.93
2019-03-24T17:35:40.918Z,16.48
2019-03-24T17:40:46.485Z,16.25
2019-03-24T17:45:52.543Z,15.93
2019-03-24T17:51:01.485Z,15.64
2019-03-24T17:56:09.108Z,15.55
2019-03-24T18:01:18.179Z,15.29
2019-03-24T18:06:26.345Z,15.38
2019-03-24T18:11:34.256Z,15.71
2019-03-24T18:16:42.457Z,14.25
2019-03-24T18:21:50.867Z,14.08
2019-03-24T18:26:59.679Z,14.31
2019-03-24T18:32:09.809Z,13.26
2019-03-24T18:37:17.565Z,13.02
2019-03-24T18:42:27.580Z,13.27
2019-03-24T18:47:36.182Z,13.26
2019-03-24T18:52:45.237Z,13.01
2019-03-24T18:57:51.323Z,12.90
2019-03-24T19:02:56.544Z,13.02
2019-03-24T19:08:02.768Z,12.55
2019-03-24T19:13:11.646Z,12.47
2019-03-24T19:18:18.015Z,12.49
2019-03-24T19:23:23.720Z,12.29
2019-03-24T19:28:29.766Z,12.36
2019-03-24T19:33:35.879Z,12.43
2019-03-24T19:38:42.385Z,12.42
2019-03-24T19:43:48.021Z,11.51
2019-03-24T19:48:54.249Z,11.47
2019-03-24T19:53:59.741Z,10.59
2019-03-24T19:59:05.195Z,9.77
2019-03-24T20:04:11.969Z,10.17
2019-03-24T20:09:17.093Z,10.17
2019-03-24T20:14:24.053Z,10.78
2019-03-24T20:19:29.060Z,10.79
2019-03-24T20:24:33.660Z,10.65
2019-03-24T20:29:38.301Z,10.97
2019-03-24T20:34:43.049Z,10.85
2019-03-24T20:39:47.990Z,10.68
2019-03-24T20:44:52.750Z,10.72
2019-03-24T20:49:57.578Z,10.33
2019-03-24T20:55:02.637Z,10.62
2019-03-24T21:00:07.271Z,10.38
2019-03-24T21:05:14.098Z,10.27
2019-03-24T21:10:18.906Z,10.01
2019-03-24T21:15:24.187Z,10.25
2019-03-24T21:20:29.063Z,10.11
2019-03-24T21:25:34.983Z,8.14
2019-03-24T21:30:41.214Z,9.02
2019-03-24T21:35:47.842Z,9.10
2019-03-24T21:40:52.584Z,9.11
2019-03-24T21:45:57.225Z,9.13
2019-03-24T21:51:01.971Z,9.23
2019-03-24T21:56:06.733Z,8.50
2019-03-24T22:01:11.657Z,8.06
2019-03-24T22:06:16.393Z,8.53
2019-03-24T22:11:21.049Z,8.72
2019-03-24T22:16:25.788Z,8.86
2019-03-24T22:21:30.527Z,8.77
2019-03-24T22:26:35.172Z,7.88
2019-03-24T22:31:40.116Z,7.67
2019-03-24T22:36:44.858Z,7.58
2019-03-24T22:41:49.507Z,7.73
2019-03-24T22:46:54.349Z,7.67
2019-03-24T22:52:07.301Z,7.63
2019-03-24T22:57:05.612Z,7.62
2019-03-24T23:02:10.312Z,7.64
2019-03-24T23:07:15.324Z,7.36
2019-03-24T23:12:20.108Z,7.18
2019-03-24T23:17:24.850Z,7.58
2019-03-24T23:22:29.592Z,7.47
2019-03-24T23:27:34.339Z,6.91
2019-03-24T23:32:39.182Z,7.44
2019-03-24T23:37:44.025Z,7.69
2019-03-24T23:42:48.870Z,6.94
2019-03-24T23:47:53.617Z,6.90
2019-03-24T23:52:59.256Z,7.11
2019-03-24T23:58:04.041Z,7.16
